Cisco Butte, California Weather observations

Data are for observation ending at time listed.
 Day   Time    Ave.   Ave.  Ave.  Vector   Max.   Stn.    Total    Solar   Ave.   Snow 
  of    of     Air    Rel.  Wind   Wind    Wind   Baro.  Precip.   Rad.    Soil   Depth
Year   Day     Temp.  Hum.  Speed  Dir.    Gust   Pres.                    Temp.       
2017   (PST)    F      %     mph   deg.    mph     mb.     in.     W/m2     F      in. 
---------------------------------------------------------------------------------------  
  35   20:50   31.6    94   13.1   270     22.1   822.0    0.00       0    -14710.0  169.7
  35   21:00   31.6    95   11.3   262     19.4   822.0    0.00       0    -14710.0  169.7
  35   21:10   31.7    95    8.9   264     19.1   822.0    0.00       0    -14710.0  169.7
  35   21:20   31.7    94   10.0   265     17.7   822.0    0.00       0    -14710.0  169.7
  35   21:30   31.8    93    6.8   264     16.5   822.0    0.00       0    -14710.0  169.7
  35   21:40   31.7    91   10.3   261     19.6   822.0    0.00       0    -14710.0  169.7
  35   21:50   31.7    92    8.2   254     18.3   822.0    0.00       0    -14710.0  169.7
  35   22:00   31.9    94    8.4   246     16.4   822.0    0.00       0    -14710.0  169.7
  35   22:10   31.8    95    8.5   273     20.0   822.0    0.00       0    -14710.0  169.7
  35   22:20   31.6    94    6.3   263     12.6   822.0    0.00       0    -14710.0  169.7
  35   22:30   31.5    93    5.3   277     15.1   822.0    0.00       0    -14710.0  169.7
  35   22:40   31.4    90    7.1   259     19.8   822.0    0.00       0    -14710.0  169.7
  35   22:50   31.5    89   10.3   256     18.9   822.0    0.00       0    -14710.0  169.7
  35   23:00   31.5    90    7.6   264     16.3   822.0    0.00       0    -14710.0  169.7
  35   23:10   31.5    91    9.7   266     18.8   823.0    0.00       0    -14710.0  169.7
  35   23:20   31.5    90    4.9   255     13.6   823.0    0.00       0    -14710.0  169.7
  35   23:30   31.5    92    4.0   212     12.3   822.0    0.00       0    -14710.0  169.7
  35   23:40   31.4    92    3.5   228      9.3   822.0    0.00       0    -14710.0  169.7
  35   23:50   31.4    92    3.7   156      8.5   822.0    0.00       0    -14710.0  169.7
  36    0:00   31.4    92    2.7   177     10.7   822.0    0.00       0    -14710.0  169.7
  36    0:10   31.3    92    5.4   126     11.1   822.0    0.00       0    -14710.0  169.7
  36    0:20   31.3    93    3.5   115      9.1   822.0    0.00       0    -14710.0  169.7
  36    0:30   31.2    91    7.6   126     14.2   822.0    0.00       0    -14710.0  158.0
  36    0:40   31.2    91    7.2   124     15.1   821.0    0.00       0    -14710.0  169.7
  36    0:50   31.1    91    7.9   116     13.9   821.0    0.00       0    -14710.0  168.4
  36    1:00   30.8    93    8.0    91     12.4   821.0    0.00       0    -14710.0  169.7
  36    1:10   30.4    94    8.3   101     11.4   821.0    0.00       0    -14710.0  169.7
  36    1:20   30.5    94    8.4    98     12.3   821.0    0.00       0    -14710.0  158.0
  36    1:30   30.7    92    9.2    92     12.7   821.0    0.00       0    -14710.0  157.9
  36    1:40   30.4    92    7.7   104     10.3   821.0    0.00       0    -14710.0  134.5
  36    1:50   30.2    92    7.9   104     10.7   821.0    0.00       0    -14710.0  110.5
  36    2:00   30.3    91    5.8   114      9.9   821.0    0.00       0    -14710.0   75.9
  36    2:10   30.3    90    5.6   112      9.9   821.0    0.00       0    -14710.0   87.8
  36    2:20   30.3    90    5.6   117      8.0   821.0    0.00       0    -14710.0   52.7
  36    2:30   30.0    92    5.1   119      8.3   821.0    0.00       0    -14710.0   52.7
  36    2:40   30.0    91    5.0   117      7.6   821.0    0.00       0    -14710.0   52.7
  36    2:50   30.1    90    6.2    99      9.6   821.0    0.00       0    -14710.0   52.6
  36    3:00   31.6    78    9.1    89     17.0   821.0    0.00       0    -14710.0   53.2
  36    3:10   33.2    69    6.8   105     13.5   821.0    0.00       0    -14710.0   53.7
  36    3:20   33.2    70    7.1    90     14.1   821.0    0.00       0    -14710.0   53.4
  36    3:30   32.7    74    7.0    95     12.9   820.0    0.00       0    -14710.0   53.4
  36    3:40   31.6    78    5.2   108      8.0   820.0    0.00       0    -14710.0   53.4
  36    3:50   31.8    76    6.2    99     12.6   820.0    0.00       0    -14710.0   53.3
  36    4:00   32.6    72    7.5    94     18.7   820.0    0.00       0    -14710.0   53.3
  36    4:10   32.5    71    8.2    96     15.6   820.0    0.00       0    -14710.0   83.6
  36    4:20   33.1    66    7.9   107     20.2   820.0    0.00       0    -14710.0   64.7
  36    4:30   33.8    62    7.7   115     14.9   820.0    0.00       0    -14710.0   54.1
  36    4:40   34.0    60    6.9   123     12.3   820.0    0.00       0    -14710.0   54.2
  36    4:50   34.1    59    6.5   153     16.4   820.0    0.00       0    -14710.0   54.4
  36    5:00   34.1    58    5.1   155     13.4   820.0    0.00       0    -14710.0   54.4
  36    5:10   34.3    57    5.7   149     15.3   820.0    0.00       0    -14710.0   54.5
  36    5:20   34.3    56    5.8   156     11.8   820.0    0.00       0    -14710.0   54.7
  36    5:30   34.3    56    5.5   141     12.8   819.0    0.00       0    -14710.0   54.6
  36    5:40   34.3    54    6.2   149     12.3   820.0    0.00       0    -14710.0   54.6
  36    5:50   34.5    52    5.7   149     13.2   820.0    0.00       0    -14710.0   54.8
  36    6:00   34.6    50    5.3   155     11.8   819.0    0.00       0    -14710.0   54.6
  36    6:10   34.7    47    6.1   156     11.6   820.0    0.00       0    -14710.0   54.8
  36    6:20   34.5    46    5.3   152     12.3   820.0    0.00       0    -14710.0   54.8
  36    6:30   34.7    44    6.0   143     13.8   819.0    0.00       0    -14710.0   54.5
  36    6:40   34.7    41    7.4   149     14.4   819.0    0.00       0    -14710.0   54.4
  36    6:50   34.7    40    5.3   160     11.5   819.0    0.00       0    -14710.0   55.3
  36    7:00   34.6    40    5.0   157     13.7   819.0    0.00       0    -14710.0   54.5
  36    7:10   34.8    38    6.0   164     15.1   819.0    0.00       1    -14710.0   54.5
  36    7:20   34.8    38    4.3   171     10.7   819.0    0.00       4    -14710.0   56.1
  36    7:30   34.7    38    5.0   182     13.4   819.0    0.00      12    -14710.0   54.3
  36    7:40   34.7    39    4.2   197     10.4   819.0    0.00      18    -14710.0   54.3
  36    7:50   34.9    38    4.7   214     10.3   820.0    0.00      24    -14710.0   54.2
  36    8:00   34.9    38    5.7   206     11.7   820.0    0.00      28    -14710.0   56.9
  36    8:10   34.9    38    3.9   174      9.0   820.0    0.00      32    -14710.0   54.1
  36    8:20   35.1    38    4.7   165     12.0   820.0    0.00      42    -14710.0   55.7
  36    8:30   35.2    38    4.8   182     11.9   820.0    0.00      50    -14710.0   54.7
  36    8:40   35.2    39    5.9   160     15.0   820.0    0.00      63    -14710.0   55.5
  36    8:50   35.1    42    7.6   171     12.6   820.0    0.00      75    -14710.0   53.5
  36    9:00   34.5    49    7.2   153     16.3   819.0    0.00      81    -14710.0   56.4
  36    9:10   35.0    47    7.9   171     14.2   819.0    0.00      76    -14710.0   59.3
  36    9:20   35.1    46    9.1   160     17.0   819.0    0.00      74    -14710.0   61.3
  36    9:30   35.5    42    7.4   164     15.1   819.0    0.00      94    -14710.0   63.0
  36    9:40   35.5    42    8.5   141     18.6   819.0    0.00      92    -14710.0   58.8
  36    9:50   35.6    42    9.8   132     15.4   819.0    0.00      91    -14710.0   66.8
  36   10:00   35.9    41   10.4   141     22.1   819.0    0.00      94    -14710.0   67.4
  36   10:10   36.0    51    9.9   175     26.5   819.0    0.00     126    -14710.0   64.5
  36   10:20   36.7    55    6.2   157     13.2   819.0    0.00     138    -14710.0   62.1
  36   10:30   37.5    49    8.2   126     12.7   819.0    0.00     166    -14710.0   63.9
  36   10:40   36.9    53   10.8   114     15.2   818.0    0.00     243    -14710.0   63.1
  36   10:50   37.4    50   10.6   116     14.8   818.0    0.00     252    -14710.0   63.2
  36   11:00   38.8    38    9.2   142     16.4   818.0    0.00     197    -14710.0   63.3
  36   11:10   39.0    34   10.3   142     17.9   818.0    0.00     136    -14710.0   64.9
  36   11:20   39.5    35   11.5   135     19.2   818.0    0.00     197    -14710.0   64.7
  36   11:30   39.8    36   12.3   126     20.4   817.0    0.00     215    -14710.0   64.8
  36   11:40   40.1    38   10.7   133     16.5   817.0    0.00     240    -14710.0   64.9
  36   11:50   42.0    37    7.0   219     18.6   817.0    0.00     285    -14710.0   64.6
  36   12:00   42.0    42   16.0   267     26.3   817.0    0.00     350    -14710.0   63.0
  36   12:10   38.5    58   12.4   263     22.9   817.0    0.00     294    -14710.0  127.3
  36   12:20   38.8    55    8.1   254     14.3   816.0    0.00     295    -14710.0   83.0
  36   12:30   40.7    48    6.1   243     12.3   816.0    0.00     312    -14710.0   64.4
  36   12:40   41.5    47    5.9   222     12.6   816.0    0.00     309    -14710.0   64.9
  36   12:50   41.4    48    6.3   240     12.6   816.0    0.00     289    -14710.0   66.9
  36   13:00   40.4    52   10.7   257     18.0   816.0    0.00     263    -14710.0   63.5
  36   13:10   39.5    55    8.7   256     16.7   815.0    0.00     274    -14710.0   90.5
  36   13:20   39.5    57    5.7   213     17.1   815.0    0.00     289    -14710.0   73.2
  36   13:30   38.6    61    6.6   212     16.0   815.0    0.00     246    -14710.0   71.7
  36   13:40   37.9    60   10.1   259     22.7   815.0    0.00     208    -14710.0   91.2
  36   13:50   37.6    61    9.7   259     20.5   815.0    0.00     173    -14710.0  145.8
  36   14:00   36.5    67   12.2   263     21.1   815.0    0.00     153    -14710.0   93.4
  36   14:10   36.2    69    7.9   246     18.7   815.0    0.00     144    -14710.0  106.4
  36   14:20   36.4    67    7.0   223     17.2   814.0    0.00     166    -14710.0   86.0
  36   14:30   36.5    68    6.3   239     13.8   814.0    0.00     149    -14710.0   96.1
  36   14:40   36.4    67    7.0   193     16.7   814.0    0.00     156    -14710.0   75.1
  36   14:50   36.5    65    6.6   179     14.6   814.0    0.00     156    -14710.0   73.7
  36   15:00   37.0    62    6.1   179     19.4   814.0    0.00     150    -14710.0   68.5
  36   15:10   37.7    58    8.2   204     17.7   814.0    0.00      86    -14710.0   70.9
  36   15:20   37.4    59    8.7   201     18.6   814.0    0.00      99    -14710.0   69.0
  36   15:30   36.6    64    7.4   203     16.0   813.0    0.00      71    -14710.0   81.6
  36   15:40   36.1    68    8.0   202     24.0   813.0    0.00      67    -14710.0   97.1
  36   15:50   35.6    69   10.3   188     22.4   813.0    0.00      95    -14710.0  118.1
  36   16:00   35.4    70   10.1   206     21.7   813.0    0.00      40    -14710.0  111.4
  36   16:10   35.1    72   10.6   247     20.7   813.0    0.00      43    -14710.0  109.2
  36   16:20   34.5    77   12.6   254     23.9   813.0    0.00      28    -14710.0  103.8
  36   16:30   34.0    82   14.5   253     31.5   814.0    0.00      25    -14710.0  116.5
  36   16:40   33.8    83   13.9   256     23.9   814.0    0.00      19    -14710.0   89.9
  36   16:50   33.6    84   11.0   239     24.1   814.0    0.00      18    -14710.0  142.1
  36   17:00   33.4    83    8.5   195     19.6   813.0    0.00       6    -14710.0  106.2
  36   17:10   33.3    82   10.4   210     20.3   813.0    0.00       6    -14710.0  130.5
  36   17:20   33.1    82   10.0   201     26.7   813.0    0.00       3    -14710.0  148.9
  36   17:30   33.1    82   11.4   176     23.6   813.0    0.00       1    -14710.0   80.4
  36   17:40   33.0    81   10.7   170     21.6   812.0    0.00       1    -14710.0   68.7
  36   17:50   33.0    81   11.1   216     26.5   812.0    0.00       0    -14710.0  142.2
  36   18:00   32.8    83    9.1   218     31.1   812.0    0.00       0    -14710.0  136.9
  36   18:10   32.6    77   13.6   186     36.3   812.0    0.00       0    -14710.0  123.7
  36   18:20   32.4    75   11.2   190     23.7   812.0    0.00       0    -14710.0  152.2
  36   18:30   32.2    78   10.1   226     28.3   812.0    0.00       0    -14710.0   80.0
  36   18:40   30.9    88   11.0   203     33.6   812.0    0.00       0    -14710.0   81.3
  36   18:50   30.5    91   13.9   184     30.4   812.0    0.00       0    -14710.0   19.6
  36   19:00   29.5    92   14.3   162     32.9   811.0    0.00       0    -14710.0   58.8
  36   19:10   29.3    93   11.7   157     19.6   811.0    0.00       0    -14710.0  156.6
  36   19:20   29.6    93    8.7   185     20.2   811.0    0.00       0    -14710.0  165.5
  36   19:30   29.6    93   12.3   164     23.6   810.0    0.00       0    -14710.0  124.7
  36   19:40   29.6    94   12.4   158     22.6   810.0    0.00       0    -14710.0  101.3
  36   19:50   29.4    94   11.3   155     20.5   810.0    0.00       0    -14710.0   70.3
  36   20:00   29.1    94   11.6   146     20.0   810.0    0.00       0    -14710.0  118.3
  36   20:10   29.0    94   12.6   143     24.3   810.0    0.00       0    -14710.0  102.9
  36   20:20   28.9    95    9.9   159     23.2   810.0    0.00       0    -14710.0   99.2
  36   20:30   29.1    94    9.5   196     21.0   810.0    0.00       0    -14710.0  114.2
  36   20:40   29.1    94   10.4   204     24.2   810.0    0.00       0    -14710.0  108.6

Return to Cisco Butte graphs page.


Western Regional Climate Center,wrcc@dri.edu